sensor_id;sensor_type;location;lat;lon;timestamp;P1;durP1;ratioP1;P2;durP2;ratioP2
54271;SDS011;40184;53.362;5.216;2022-08-19T00:02:04;5.13;;;2.00;;
54271;SDS011;40184;53.362;5.216;2022-08-19T00:04:31;5.00;;;1.98;;
54271;SDS011;40184;53.362;5.216;2022-08-19T00:07:01;5.43;;;1.60;;
54271;SDS011;40184;53.362;5.216;2022-08-19T00:09:29;5.47;;;2.10;;
54271;SDS011;40184;53.362;5.216;2022-08-19T00:11:54;7.18;;;2.47;;
54271;SDS011;40184;53.362;5.216;2022-08-19T00:14:22;6.90;;;2.47;;
54271;SDS011;40184;53.362;5.216;2022-08-19T00:16:49;5.68;;;1.83;;
54271;SDS011;40184;53.362;5.216;2022-08-19T00:19:19;4.72;;;1.35;;
54271;SDS011;40184;53.362;5.216;2022-08-19T00:21:45;3.47;;;1.75;;
54271;SDS011;40184;53.362;5.216;2022-08-19T00:24:12;3.22;;;1.67;;
54271;SDS011;40184;53.362;5.216;2022-08-19T00:26:39;6.00;;;2.05;;
54271;SDS011;40184;53.362;5.216;2022-08-19T00:29:07;5.22;;;1.60;;
54271;SDS011;40184;53.362;5.216;2022-08-19T00:31:34;5.40;;;2.40;;
54271;SDS011;40184;53.362;5.216;2022-08-19T00:34:00;1.83;;;1.60;;
54271;SDS011;40184;53.362;5.216;2022-08-19T00:36:26;4.65;;;1.50;;
54271;SDS011;40184;53.362;5.216;2022-08-19T00:38:53;2.53;;;1.67;;
54271;SDS011;40184;53.362;5.216;2022-08-19T00:41:19;5.63;;;2.22;;
54271;SDS011;40184;53.362;5.216;2022-08-19T00:44:04;2.30;;;1.60;;
54271;SDS011;40184;53.362;5.216;2022-08-19T00:46:33;5.75;;;2.30;;
54271;SDS011;40184;53.362;5.216;2022-08-19T00:49:02;9.38;;;2.55;;
54271;SDS011;40184;53.362;5.216;2022-08-19T00:51:40;4.47;;;2.13;;
54271;SDS011;40184;53.362;5.216;2022-08-19T00:54:07;4.70;;;1.75;;
54271;SDS011;40184;53.362;5.216;2022-08-19T00:56:34;5.43;;;2.15;;
54271;SDS011;40184;53.362;5.216;2022-08-19T00:59:00;8.20;;;3.28;;
54271;SDS011;40184;53.362;5.216;2022-08-19T01:01:27;7.05;;;1.90;;
54271;SDS011;40184;53.362;5.216;2022-08-19T01:03:53;7.53;;;2.47;;
54271;SDS011;40184;53.362;5.216;2022-08-19T01:06:19;7.47;;;3.25;;
54271;SDS011;40184;53.362;5.216;2022-08-19T01:08:44;7.50;;;2.30;;
54271;SDS011;40184;53.362;5.216;2022-08-19T01:11:10;9.32;;;2.97;;
54271;SDS011;40184;53.362;5.216;2022-08-19T01:13:37;2.45;;;2.05;;
54271;SDS011;40184;53.362;5.216;2022-08-19T01:16:04;3.53;;;1.83;;
54271;SDS011;40184;53.362;5.216;2022-08-19T01:18:32;8.35;;;3.30;;
54271;SDS011;40184;53.362;5.216;2022-08-19T01:21:05;4.28;;;2.72;;
54271;SDS011;40184;53.362;5.216;2022-08-19T01:23:48;9.95;;;3.00;;
54271;SDS011;40184;53.362;5.216;2022-08-19T01:26:17;7.38;;;2.30;;
54271;SDS011;40184;53.362;5.216;2022-08-19T01:28:46;6.47;;;2.20;;
54271;SDS011;40184;53.362;5.216;2022-08-19T01:31:17;3.95;;;2.97;;
54271;SDS011;40184;53.362;5.216;2022-08-19T01:36:14;7.72;;;3.28;;
54271;SDS011;40184;53.362;5.216;2022-08-19T01:38:47;8.48;;;3.10;;
54271;SDS011;40184;53.362;5.216;2022-08-19T01:41:13;3.65;;;2.25;;
54271;SDS011;40184;53.362;5.216;2022-08-19T01:43:39;3.85;;;1.88;;
54271;SDS011;40184;53.362;5.216;2022-08-19T01:46:05;4.38;;;2.13;;
54271;SDS011;40184;53.362;5.216;2022-08-19T01:48:35;3.80;;;2.13;;
54271;SDS011;40184;53.362;5.216;2022-08-19T01:51:03;7.70;;;3.13;;
54271;SDS011;40184;53.362;5.216;2022-08-19T01:53:29;5.88;;;2.55;;
54271;SDS011;40184;53.362;5.216;2022-08-19T01:55:55;5.80;;;2.47;;
54271;SDS011;40184;53.362;5.216;2022-08-19T01:58:22;4.45;;;2.30;;
54271;SDS011;40184;53.362;5.216;2022-08-19T02:00:53;4.82;;;2.35;;
54271;SDS011;40184;53.362;5.216;2022-08-19T02:03:18;6.07;;;2.40;;
54271;SDS011;40184;53.362;5.216;2022-08-19T02:05:44;3.53;;;1.90;;
54271;SDS011;40184;53.362;5.216;2022-08-19T02:08:10;5.53;;;2.30;;
54271;SDS011;40184;53.362;5.216;2022-08-19T02:10:40;3.28;;;2.20;;
54271;SDS011;40184;53.362;5.216;2022-08-19T02:13:08;5.43;;;2.75;;
54271;SDS011;40184;53.362;5.216;2022-08-19T02:15:34;6.28;;;2.53;;
54271;SDS011;40184;53.362;5.216;2022-08-19T02:18:00;4.55;;;2.40;;
54271;SDS011;40184;53.362;5.216;2022-08-19T02:20:26;8.32;;;2.38;;
54271;SDS011;40184;53.362;5.216;2022-08-19T02:22:51;5.47;;;2.42;;
54271;SDS011;40184;53.362;5.216;2022-08-19T02:25:17;2.67;;;1.85;;
54271;SDS011;40184;53.362;5.216;2022-08-19T02:27:43;2.97;;;2.35;;
54271;SDS011;40184;53.362;5.216;2022-08-19T02:30:10;6.28;;;2.20;;
54271;SDS011;40184;53.362;5.216;2022-08-19T02:32:38;6.93;;;2.40;;
54271;SDS011;40184;53.362;5.216;2022-08-19T02:35:04;6.32;;;3.08;;
54271;SDS011;40184;53.362;5.216;2022-08-19T02:37:30;5.35;;;2.63;;
54271;SDS011;40184;53.362;5.216;2022-08-19T02:40:14;10.45;;;3.38;;
54271;SDS011;40184;53.362;5.216;2022-08-19T02:42:42;5.25;;;2.67;;
54271;SDS011;40184;53.362;5.216;2022-08-19T02:45:08;6.07;;;2.30;;
54271;SDS011;40184;53.362;5.216;2022-08-19T02:47:34;8.20;;;2.33;;
54271;SDS011;40184;53.362;5.216;2022-08-19T02:50:01;4.40;;;2.28;;
54271;SDS011;40184;53.362;5.216;2022-08-19T02:52:27;7.40;;;2.25;;
54271;SDS011;40184;53.362;5.216;2022-08-19T02:54:53;4.45;;;2.10;;
54271;SDS011;40184;53.362;5.216;2022-08-19T02:57:20;6.57;;;2.58;;
54271;SDS011;40184;53.362;5.216;2022-08-19T02:59:46;5.60;;;2.25;;
54271;SDS011;40184;53.362;5.216;2022-08-19T03:02:11;6.50;;;3.55;;
54271;SDS011;40184;53.362;5.216;2022-08-19T03:04:37;5.30;;;2.80;;
54271;SDS011;40184;53.362;5.216;2022-08-19T03:07:03;4.25;;;3.85;;
54271;SDS011;40184;53.362;5.216;2022-08-19T03:09:28;7.95;;;4.18;;
54271;SDS011;40184;53.362;5.216;2022-08-19T03:11:55;9.85;;;4.28;;
54271;SDS011;40184;53.362;5.216;2022-08-19T03:14:20;5.68;;;3.85;;
54271;SDS011;40184;53.362;5.216;2022-08-19T03:16:47;5.80;;;3.85;;
54271;SDS011;40184;53.362;5.216;2022-08-19T03:19:16;5.18;;;4.25;;
54271;SDS011;40184;53.362;5.216;2022-08-19T03:21:43;5.07;;;4.60;;
54271;SDS011;40184;53.362;5.216;2022-08-19T03:24:09;6.13;;;4.25;;
54271;SDS011;40184;53.362;5.216;2022-08-19T03:26:44;10.18;;;5.10;;
54271;SDS011;40184;53.362;5.216;2022-08-19T03:29:13;6.63;;;4.95;;
54271;SDS011;40184;53.362;5.216;2022-08-19T03:31:40;11.38;;;4.97;;
54271;SDS011;40184;53.362;5.216;2022-08-19T03:34:08;7.45;;;4.35;;
54271;SDS011;40184;53.362;5.216;2022-08-19T03:36:36;7.35;;;4.57;;
54271;SDS011;40184;53.362;5.216;2022-08-19T03:39:03;9.18;;;5.28;;
54271;SDS011;40184;53.362;5.216;2022-08-19T03:41:30;10.93;;;4.20;;
54271;SDS011;40184;53.362;5.216;2022-08-19T03:44:01;6.82;;;4.00;;
54271;SDS011;40184;53.362;5.216;2022-08-19T03:46:29;7.43;;;5.10;;
54271;SDS011;40184;53.362;5.216;2022-08-19T03:48:58;5.85;;;3.70;;
54271;SDS011;40184;53.362;5.216;2022-08-19T03:51:27;6.95;;;4.25;;
54271;SDS011;40184;53.362;5.216;2022-08-19T03:53:58;7.97;;;4.53;;
54271;SDS011;40184;53.362;5.216;2022-08-19T03:56:25;5.82;;;4.70;;
54271;SDS011;40184;53.362;5.216;2022-08-19T03:58:52;9.13;;;4.75;;
54271;SDS011;40184;53.362;5.216;2022-08-19T04:01:21;8.80;;;6.07;;
54271;SDS011;40184;53.362;5.216;2022-08-19T04:03:48;11.32;;;5.88;;
54271;SDS011;40184;53.362;5.216;2022-08-19T04:06:16;8.98;;;5.72;;
54271;SDS011;40184;53.362;5.216;2022-08-19T04:08:43;11.07;;;6.18;;
54271;SDS011;40184;53.362;5.216;2022-08-19T04:11:12;16.10;;;6.75;;
54271;SDS011;40184;53.362;5.216;2022-08-19T04:13:42;7.90;;;6.30;;
54271;SDS011;40184;53.362;5.216;2022-08-19T04:16:11;11.10;;;7.10;;
54271;SDS011;40184;53.362;5.216;2022-08-19T04:18:37;11.45;;;7.03;;
54271;SDS011;40184;53.362;5.216;2022-08-19T04:21:04;10.65;;;6.43;;
54271;SDS011;40184;53.362;5.216;2022-08-19T04:23:31;11.70;;;7.50;;
54271;SDS011;40184;53.362;5.216;2022-08-19T04:25:57;8.07;;;7.20;;
54271;SDS011;40184;53.362;5.216;2022-08-19T04:28:23;14.55;;;8.13;;
54271;SDS011;40184;53.362;5.216;2022-08-19T04:30:51;9.20;;;8.27;;
54271;SDS011;40184;53.362;5.216;2022-08-19T04:33:18;15.75;;;9.00;;
54271;SDS011;40184;53.362;5.216;2022-08-19T04:35:48;11.00;;;8.93;;
54271;SDS011;40184;53.362;5.216;2022-08-19T04:38:15;11.05;;;9.93;;
54271;SDS011;40184;53.362;5.216;2022-08-19T04:40:43;12.13;;;9.88;;
54271;SDS011;40184;53.362;5.216;2022-08-19T04:43:29;12.20;;;9.93;;
54271;SDS011;40184;53.362;5.216;2022-08-19T04:45:55;11.95;;;10.27;;
54271;SDS011;40184;53.362;5.216;2022-08-19T04:48:21;16.63;;;10.43;;
54271;SDS011;40184;53.362;5.216;2022-08-19T04:50:51;22.42;;;10.70;;
54271;SDS011;40184;53.362;5.216;2022-08-19T04:53:22;13.30;;;9.30;;
54271;SDS011;40184;53.362;5.216;2022-08-19T04:55:50;12.27;;;9.50;;
54271;SDS011;40184;53.362;5.216;2022-08-19T04:58:16;13.02;;;9.40;;
54271;SDS011;40184;53.362;5.216;2022-08-19T05:00:42;23.52;;;10.40;;
54271;SDS011;40184;53.362;5.216;2022-08-19T05:03:08;9.98;;;8.55;;
54271;SDS011;40184;53.362;5.216;2022-08-19T05:05:41;10.90;;;9.18;;
54271;SDS011;40184;53.362;5.216;2022-08-19T05:08:07;9.68;;;8.35;;
54271;SDS011;40184;53.362;5.216;2022-08-19T05:10:37;16.20;;;10.05;;
54271;SDS011;40184;53.362;5.216;2022-08-19T05:13:04;16.60;;;9.95;;
54271;SDS011;40184;53.362;5.216;2022-08-19T05:15:30;14.00;;;9.20;;
54271;SDS011;40184;53.362;5.216;2022-08-19T05:17:56;12.10;;;9.43;;
54271;SDS011;40184;53.362;5.216;2022-08-19T05:20:40;12.20;;;8.98;;
54271;SDS011;40184;53.362;5.216;2022-08-19T05:23:25;12.23;;;9.52;;
54271;SDS011;40184;53.362;5.216;2022-08-19T05:25:51;14.05;;;9.73;;
54271;SDS011;40184;53.362;5.216;2022-08-19T05:28:17;12.82;;;9.73;;
54271;SDS011;40184;53.362;5.216;2022-08-19T05:30:44;10.55;;;9.05;;
54271;SDS011;40184;53.362;5.216;2022-08-19T05:33:10;12.65;;;8.85;;
54271;SDS011;40184;53.362;5.216;2022-08-19T05:35:39;13.25;;;9.25;;
54271;SDS011;40184;53.362;5.216;2022-08-19T05:38:06;10.00;;;8.75;;
54271;SDS011;40184;53.362;5.216;2022-08-19T05:40:36;15.48;;;10.25;;
54271;SDS011;40184;53.362;5.216;2022-08-19T05:43:04;13.10;;;9.43;;
54271;SDS011;40184;53.362;5.216;2022-08-19T05:45:31;16.13;;;10.02;;
54271;SDS011;40184;53.362;5.216;2022-08-19T05:47:57;14.68;;;9.80;;
54271;SDS011;40184;53.362;5.216;2022-08-19T05:50:23;15.43;;;9.82;;
54271;SDS011;40184;53.362;5.216;2022-08-19T05:52:51;10.20;;;9.27;;
54271;SDS011;40184;53.362;5.216;2022-08-19T05:55:17;12.68;;;10.90;;
54271;SDS011;40184;53.362;5.216;2022-08-19T05:57:45;11.20;;;7.68;;
54271;SDS011;40184;53.362;5.216;2022-08-19T06:00:11;9.52;;;6.38;;
54271;SDS011;40184;53.362;5.216;2022-08-19T06:02:38;7.97;;;6.47;;
54271;SDS011;40184;53.362;5.216;2022-08-19T06:05:04;11.73;;;7.45;;
54271;SDS011;40184;53.362;5.216;2022-08-19T06:07:34;10.98;;;7.35;;
54271;SDS011;40184;53.362;5.216;2022-08-19T06:10:00;9.82;;;6.80;;
54271;SDS011;40184;53.362;5.216;2022-08-19T06:12:27;10.98;;;7.30;;
54271;SDS011;40184;53.362;5.216;2022-08-19T06:14:56;9.85;;;6.93;;
54271;SDS011;40184;53.362;5.216;2022-08-19T06:17:22;8.65;;;6.88;;
54271;SDS011;40184;53.362;5.216;2022-08-19T06:19:50;12.73;;;7.32;;
54271;SDS011;40184;53.362;5.216;2022-08-19T06:22:15;13.15;;;7.53;;
54271;SDS011;40184;53.362;5.216;2022-08-19T06:24:41;12.32;;;8.73;;
54271;SDS011;40184;53.362;5.216;2022-08-19T06:27:07;11.32;;;7.90;;
54271;SDS011;40184;53.362;5.216;2022-08-19T06:29:33;10.88;;;7.68;;
54271;SDS011;40184;53.362;5.216;2022-08-19T06:32:00;12.63;;;8.60;;
54271;SDS011;40184;53.362;5.216;2022-08-19T06:34:29;9.98;;;8.88;;
54271;SDS011;40184;53.362;5.216;2022-08-19T06:36:58;12.95;;;10.20;;
54271;SDS011;40184;53.362;5.216;2022-08-19T06:39:27;13.80;;;10.00;;
54271;SDS011;40184;53.362;5.216;2022-08-19T06:41:57;18.30;;;10.73;;
54271;SDS011;40184;53.362;5.216;2022-08-19T06:44:25;16.15;;;11.40;;
54271;SDS011;40184;53.362;5.216;2022-08-19T06:46:54;13.93;;;10.45;;
54271;SDS011;40184;53.362;5.216;2022-08-19T06:49:20;14.00;;;10.35;;
54271;SDS011;40184;53.362;5.216;2022-08-19T06:51:47;21.08;;;14.82;;
54271;SDS011;40184;53.362;5.216;2022-08-19T06:54:14;23.05;;;13.05;;
54271;SDS011;40184;53.362;5.216;2022-08-19T06:56:41;17.83;;;13.73;;
54271;SDS011;40184;53.362;5.216;2022-08-19T06:59:11;19.17;;;15.20;;
54271;SDS011;40184;53.362;5.216;2022-08-19T07:01:42;21.60;;;15.07;;
54271;SDS011;40184;53.362;5.216;2022-08-19T07:04:12;23.20;;;16.05;;
54271;SDS011;40184;53.362;5.216;2022-08-19T07:06:41;22.38;;;16.60;;
54271;SDS011;40184;53.362;5.216;2022-08-19T07:09:09;22.58;;;16.98;;
54271;SDS011;40184;53.362;5.216;2022-08-19T07:11:37;24.50;;;16.55;;
54271;SDS011;40184;53.362;5.216;2022-08-19T07:14:03;26.38;;;18.25;;
54271;SDS011;40184;53.362;5.216;2022-08-19T07:16:31;22.13;;;16.63;;
54271;SDS011;40184;53.362;5.216;2022-08-19T07:18:57;22.65;;;17.15;;
54271;SDS011;40184;53.362;5.216;2022-08-19T07:21:26;23.50;;;18.05;;
54271;SDS011;40184;53.362;5.216;2022-08-19T07:23:53;54.42;;;17.23;;
54271;SDS011;40184;53.362;5.216;2022-08-19T07:26:24;29.05;;;18.58;;
54271;SDS011;40184;53.362;5.216;2022-08-19T07:28:55;25.02;;;18.30;;
54271;SDS011;40184;53.362;5.216;2022-08-19T07:31:23;22.75;;;17.42;;
54271;SDS011;40184;53.362;5.216;2022-08-19T07:33:51;23.98;;;17.17;;
54271;SDS011;40184;53.362;5.216;2022-08-19T07:36:21;20.30;;;16.48;;
54271;SDS011;40184;53.362;5.216;2022-08-19T07:38:57;24.77;;;16.00;;
54271;SDS011;40184;53.362;5.216;2022-08-19T07:41:24;23.83;;;16.90;;
54271;SDS011;40184;53.362;5.216;2022-08-19T07:43:53;27.30;;;19.70;;
54271;SDS011;40184;53.362;5.216;2022-08-19T07:46:20;27.25;;;16.58;;
54271;SDS011;40184;53.362;5.216;2022-08-19T07:48:47;23.85;;;15.82;;
54271;SDS011;40184;53.362;5.216;2022-08-19T07:51:15;22.23;;;16.67;;
54271;SDS011;40184;53.362;5.216;2022-08-19T07:53:44;25.75;;;16.60;;
54271;SDS011;40184;53.362;5.216;2022-08-19T07:56:11;23.83;;;17.25;;
54271;SDS011;40184;53.362;5.216;2022-08-19T07:58:38;26.33;;;15.00;;
54271;SDS011;40184;53.362;5.216;2022-08-19T08:01:06;19.98;;;14.00;;
54271;SDS011;40184;53.362;5.216;2022-08-19T08:03:35;23.75;;;14.93;;
54271;SDS011;40184;53.362;5.216;2022-08-19T08:06:20;22.25;;;12.55;;
54271;SDS011;40184;53.362;5.216;2022-08-19T08:09:05;18.67;;;11.93;;
54271;SDS011;40184;53.362;5.216;2022-08-19T08:11:51;19.52;;;10.00;;
54271;SDS011;40184;53.362;5.216;2022-08-19T08:14:21;20.33;;;10.45;;
54271;SDS011;40184;53.362;5.216;2022-08-19T08:16:49;24.65;;;12.13;;
54271;SDS011;40184;53.362;5.216;2022-08-19T08:19:17;23.55;;;11.35;;
54271;SDS011;40184;53.362;5.216;2022-08-19T08:21:44;27.27;;;11.80;;
54271;SDS011;40184;53.362;5.216;2022-08-19T08:24:10;20.33;;;12.07;;
54271;SDS011;40184;53.362;5.216;2022-08-19T08:26:37;22.55;;;11.90;;
54271;SDS011;40184;53.362;5.216;2022-08-19T08:29:03;21.20;;;8.98;;
54271;SDS011;40184;53.362;5.216;2022-08-19T08:31:28;19.17;;;7.97;;
54271;SDS011;40184;53.362;5.216;2022-08-19T08:33:54;22.60;;;8.27;;
54271;SDS011;40184;53.362;5.216;2022-08-19T08:36:20;17.13;;;7.15;;
54271;SDS011;40184;53.362;5.216;2022-08-19T08:38:46;16.08;;;6.75;;
54271;SDS011;40184;53.362;5.216;2022-08-19T08:44:13;19.77;;;7.72;;
54271;SDS011;40184;53.362;5.216;2022-08-19T08:46:47;16.40;;;6.32;;
54271;SDS011;40184;53.362;5.216;2022-08-19T08:49:25;17.13;;;6.68;;
54271;SDS011;40184;53.362;5.216;2022-08-19T08:52:22;22.52;;;8.45;;
54271;SDS011;40184;53.362;5.216;2022-08-19T08:54:52;19.27;;;6.72;;
54271;SDS011;40184;53.362;5.216;2022-08-19T08:57:21;15.63;;;7.25;;
54271;SDS011;40184;53.362;5.216;2022-08-19T09:00:10;15.50;;;6.70;;
54271;SDS011;40184;53.362;5.216;2022-08-19T09:02:41;15.30;;;6.78;;
54271;SDS011;40184;53.362;5.216;2022-08-19T09:05:08;14.23;;;6.95;;
54271;SDS011;40184;53.362;5.216;2022-08-19T09:07:45;20.63;;;6.82;;
54271;SDS011;40184;53.362;5.216;2022-08-19T09:10:29;11.48;;;6.57;;
54271;SDS011;40184;53.362;5.216;2022-08-19T09:15:34;14.10;;;6.82;;
54271;SDS011;40184;53.362;5.216;2022-08-19T09:18:05;14.20;;;6.85;;
54271;SDS011;40184;53.362;5.216;2022-08-19T09:20:33;13.02;;;6.60;;
54271;SDS011;40184;53.362;5.216;2022-08-19T09:22:59;11.52;;;7.20;;
54271;SDS011;40184;53.362;5.216;2022-08-19T09:25:24;13.35;;;6.70;;
54271;SDS011;40184;53.362;5.216;2022-08-19T09:27:51;11.68;;;7.28;;
54271;SDS011;40184;53.362;5.216;2022-08-19T09:30:23;12.23;;;5.70;;
54271;SDS011;40184;53.362;5.216;2022-08-19T09:32:51;12.18;;;6.75;;
54271;SDS011;40184;53.362;5.216;2022-08-19T09:35:18;15.15;;;7.32;;
54271;SDS011;40184;53.362;5.216;2022-08-19T09:37:47;13.65;;;7.53;;
54271;SDS011;40184;53.362;5.216;2022-08-19T09:40:14;11.48;;;6.45;;
54271;SDS011;40184;53.362;5.216;2022-08-19T09:42:41;10.43;;;7.50;;
54271;SDS011;40184;53.362;5.216;2022-08-19T09:45:08;12.82;;;6.43;;
54271;SDS011;40184;53.362;5.216;2022-08-19T09:47:35;14.15;;;6.38;;
54271;SDS011;40184;53.362;5.216;2022-08-19T09:50:04;14.20;;;7.38;;
54271;SDS011;40184;53.362;5.216;2022-08-19T09:52:32;11.32;;;6.90;;
54271;SDS011;40184;53.362;5.216;2022-08-19T09:54:57;16.95;;;7.93;;
54271;SDS011;40184;53.362;5.216;2022-08-19T09:57:23;14.95;;;8.15;;
54271;SDS011;40184;53.362;5.216;2022-08-19T09:59:49;12.18;;;7.45;;
54271;SDS011;40184;53.362;5.216;2022-08-19T10:02:14;13.05;;;7.47;;
54271;SDS011;40184;53.362;5.216;2022-08-19T10:04:40;12.00;;;6.53;;
54271;SDS011;40184;53.362;5.216;2022-08-19T10:07:24;12.85;;;7.65;;
54271;SDS011;40184;53.362;5.216;2022-08-19T10:09:50;14.80;;;7.18;;
54271;SDS011;40184;53.362;5.216;2022-08-19T10:12:15;10.55;;;7.57;;
54271;SDS011;40184;53.362;5.216;2022-08-19T10:14:41;11.43;;;6.18;;
54271;SDS011;40184;53.362;5.216;2022-08-19T10:17:07;10.23;;;6.30;;
54271;SDS011;40184;53.362;5.216;2022-08-19T10:19:33;13.80;;;6.97;;
54271;SDS011;40184;53.362;5.216;2022-08-19T10:22:04;11.23;;;6.40;;
54271;SDS011;40184;53.362;5.216;2022-08-19T10:24:31;14.07;;;7.57;;
54271;SDS011;40184;53.362;5.216;2022-08-19T10:26:59;9.13;;;6.25;;
54271;SDS011;40184;53.362;5.216;2022-08-19T10:29:28;14.65;;;5.97;;
54271;SDS011;40184;53.362;5.216;2022-08-19T10:31:56;9.43;;;6.28;;
54271;SDS011;40184;53.362;5.216;2022-08-19T10:34:23;10.20;;;7.15;;
54271;SDS011;40184;53.362;5.216;2022-08-19T10:36:49;14.93;;;7.28;;
54271;SDS011;40184;53.362;5.216;2022-08-19T10:39:16;10.02;;;6.50;;
54271;SDS011;40184;53.362;5.216;2022-08-19T10:41:42;8.63;;;6.50;;
54271;SDS011;40184;53.362;5.216;2022-08-19T10:44:09;13.48;;;6.78;;
54271;SDS011;40184;53.362;5.216;2022-08-19T10:46:37;11.25;;;6.90;;
54271;SDS011;40184;53.362;5.216;2022-08-19T10:49:07;12.40;;;6.83;;
54271;SDS011;40184;53.362;5.216;2022-08-19T10:51:36;11.00;;;6.00;;
54271;SDS011;40184;53.362;5.216;2022-08-19T10:54:22;10.20;;;6.68;;
54271;SDS011;40184;53.362;5.216;2022-08-19T10:56:47;10.32;;;5.82;;
54271;SDS011;40184;53.362;5.216;2022-08-19T10:59:20;13.48;;;7.00;;
54271;SDS011;40184;53.362;5.216;2022-08-19T11:01:46;10.02;;;6.60;;
54271;SDS011;40184;53.362;5.216;2022-08-19T11:04:13;14.07;;;7.47;;
54271;SDS011;40184;53.362;5.216;2022-08-19T11:06:42;9.27;;;6.78;;
54271;SDS011;40184;53.362;5.216;2022-08-19T11:09:13;14.10;;;6.53;;
54271;SDS011;40184;53.362;5.216;2022-08-19T11:11:43;12.90;;;6.38;;
54271;SDS011;40184;53.362;5.216;2022-08-19T11:14:10;15.00;;;6.88;;
54271;SDS011;40184;53.362;5.216;2022-08-19T11:16:38;10.10;;;6.25;;
54271;SDS011;40184;53.362;5.216;2022-08-19T11:19:06;11.73;;;6.05;;
54271;SDS011;40184;53.362;5.216;2022-08-19T11:21:37;15.82;;;5.63;;
54271;SDS011;40184;53.362;5.216;2022-08-19T11:24:09;8.27;;;5.88;;
54271;SDS011;40184;53.362;5.216;2022-08-19T11:26:40;8.48;;;6.32;;
54271;SDS011;40184;53.362;5.216;2022-08-19T11:29:08;10.23;;;6.05;;
54271;SDS011;40184;53.362;5.216;2022-08-19T11:31:39;6.53;;;4.85;;
54271;SDS011;40184;53.362;5.216;2022-08-19T11:34:08;6.93;;;4.30;;
54271;SDS011;40184;53.362;5.216;2022-08-19T11:36:38;10.02;;;6.22;;
54271;SDS011;40184;53.362;5.216;2022-08-19T11:39:06;5.70;;;4.50;;
54271;SDS011;40184;53.362;5.216;2022-08-19T11:41:36;10.40;;;5.32;;
54271;SDS011;40184;53.362;5.216;2022-08-19T11:44:02;6.78;;;5.88;;
54271;SDS011;40184;53.362;5.216;2022-08-19T11:46:29;6.13;;;5.30;;
54271;SDS011;40184;53.362;5.216;2022-08-19T11:48:56;10.55;;;5.30;;
54271;SDS011;40184;53.362;5.216;2022-08-19T11:51:24;10.15;;;5.18;;
54271;SDS011;40184;53.362;5.216;2022-08-19T11:53:51;8.98;;;5.22;;
54271;SDS011;40184;53.362;5.216;2022-08-19T11:56:19;7.75;;;5.70;;
54271;SDS011;40184;53.362;5.216;2022-08-19T11:58:45;8.68;;;6.18;;
54271;SDS011;40184;53.362;5.216;2022-08-19T12:01:12;8.48;;;6.70;;
54271;SDS011;40184;53.362;5.216;2022-08-19T12:03:41;11.20;;;5.68;;
54271;SDS011;40184;53.362;5.216;2022-08-19T12:06:09;7.60;;;4.47;;
54271;SDS011;40184;53.362;5.216;2022-08-19T12:08:38;8.00;;;5.35;;
54271;SDS011;40184;53.362;5.216;2022-08-19T12:11:08;9.27;;;4.72;;
54271;SDS011;40184;53.362;5.216;2022-08-19T12:13:35;9.95;;;6.00;;
54271;SDS011;40184;53.362;5.216;2022-08-19T12:16:07;5.68;;;4.72;;
54271;SDS011;40184;53.362;5.216;2022-08-19T12:18:36;5.38;;;4.07;;
54271;SDS011;40184;53.362;5.216;2022-08-19T12:21:02;9.15;;;4.20;;
54271;SDS011;40184;53.362;5.216;2022-08-19T12:23:28;5.10;;;3.70;;
54271;SDS011;40184;53.362;5.216;2022-08-19T12:25:54;7.03;;;4.20;;
54271;SDS011;40184;53.362;5.216;2022-08-19T12:28:23;6.28;;;3.42;;
54271;SDS011;40184;53.362;5.216;2022-08-19T12:30:50;6.03;;;3.95;;
54271;SDS011;40184;53.362;5.216;2022-08-19T12:33:16;3.47;;;3.05;;
54271;SDS011;40184;53.362;5.216;2022-08-19T12:35:44;4.65;;;3.25;;
54271;SDS011;40184;53.362;5.216;2022-08-19T12:38:11;4.50;;;2.63;;
54271;SDS011;40184;53.362;5.216;2022-08-19T12:40:37;3.97;;;3.33;;
54271;SDS011;40184;53.362;5.216;2022-08-19T12:43:05;11.43;;;3.00;;
54271;SDS011;40184;53.362;5.216;2022-08-19T12:45:31;5.03;;;3.10;;
54271;SDS011;40184;53.362;5.216;2022-08-19T12:47:56;3.05;;;2.65;;
54271;SDS011;40184;53.362;5.216;2022-08-19T12:50:23;2.42;;;2.22;;
54271;SDS011;40184;53.362;5.216;2022-08-19T12:52:49;3.70;;;2.90;;
54271;SDS011;40184;53.362;5.216;2022-08-19T12:55:15;5.57;;;2.90;;
54271;SDS011;40184;53.362;5.216;2022-08-19T12:57:41;4.70;;;3.40;;
54271;SDS011;40184;53.362;5.216;2022-08-19T13:00:07;6.10;;;2.45;;
54271;SDS011;40184;53.362;5.216;2022-08-19T13:02:37;7.65;;;3.67;;
54271;SDS011;40184;53.362;5.216;2022-08-19T13:05:04;3.28;;;2.20;;
54271;SDS011;40184;53.362;5.216;2022-08-19T13:07:32;3.35;;;3.05;;
54271;SDS011;40184;53.362;5.216;2022-08-19T13:09:57;6.90;;;3.58;;
54271;SDS011;40184;53.362;5.216;2022-08-19T13:12:23;4.82;;;3.08;;
54271;SDS011;40184;53.362;5.216;2022-08-19T13:14:52;3.47;;;2.75;;
54271;SDS011;40184;53.362;5.216;2022-08-19T13:17:18;8.18;;;4.30;;
54271;SDS011;40184;53.362;5.216;2022-08-19T13:19:45;4.78;;;3.33;;
54271;SDS011;40184;53.362;5.216;2022-08-19T13:22:11;6.28;;;4.07;;
54271;SDS011;40184;53.362;5.216;2022-08-19T13:24:37;8.88;;;5.03;;
54271;SDS011;40184;53.362;5.216;2022-08-19T13:27:03;12.23;;;5.32;;
54271;SDS011;40184;53.362;5.216;2022-08-19T13:29:29;6.90;;;5.25;;
54271;SDS011;40184;53.362;5.216;2022-08-19T13:32:13;7.15;;;4.38;;
54271;SDS011;40184;53.362;5.216;2022-08-19T13:34:57;4.72;;;4.32;;
54271;SDS011;40184;53.362;5.216;2022-08-19T13:37:23;6.15;;;4.95;;
54271;SDS011;40184;53.362;5.216;2022-08-19T13:40:06;8.23;;;4.70;;
54271;SDS011;40184;53.362;5.216;2022-08-19T13:42:37;7.13;;;4.72;;
54271;SDS011;40184;53.362;5.216;2022-08-19T13:45:04;6.10;;;3.60;;
54271;SDS011;40184;53.362;5.216;2022-08-19T13:47:31;7.55;;;4.53;;
54271;SDS011;40184;53.362;5.216;2022-08-19T13:49:59;5.32;;;2.90;;
54271;SDS011;40184;53.362;5.216;2022-08-19T13:52:27;2.60;;;2.20;;
54271;SDS011;40184;53.362;5.216;2022-08-19T13:54:52;5.72;;;2.22;;
54271;SDS011;40184;53.362;5.216;2022-08-19T13:57:19;7.07;;;2.70;;
54271;SDS011;40184;53.362;5.216;2022-08-19T13:59:44;2.75;;;2.35;;
54271;SDS011;40184;53.362;5.216;2022-08-19T14:02:10;6.50;;;3.97;;
54271;SDS011;40184;53.362;5.216;2022-08-19T14:04:36;3.35;;;2.85;;
54271;SDS011;40184;53.362;5.216;2022-08-19T14:07:02;3.17;;;2.88;;
54271;SDS011;40184;53.362;5.216;2022-08-19T14:09:28;4.40;;;2.83;;
54271;SDS011;40184;53.362;5.216;2022-08-19T14:11:54;6.20;;;2.58;;
54271;SDS011;40184;53.362;5.216;2022-08-19T14:14:20;5.88;;;2.15;;
54271;SDS011;40184;53.362;5.216;2022-08-19T14:16:46;5.28;;;2.30;;
54271;SDS011;40184;53.362;5.216;2022-08-19T14:19:13;5.10;;;2.45;;
54271;SDS011;40184;53.362;5.216;2022-08-19T14:21:38;3.95;;;2.05;;
54271;SDS011;40184;53.362;5.216;2022-08-19T14:24:06;3.65;;;1.77;;
54271;SDS011;40184;53.362;5.216;2022-08-19T14:26:32;3.67;;;2.80;;
54271;SDS011;40184;53.362;5.216;2022-08-19T14:28:57;4.38;;;2.80;;
54271;SDS011;40184;53.362;5.216;2022-08-19T14:31:23;3.78;;;2.67;;
54271;SDS011;40184;53.362;5.216;2022-08-19T14:33:50;5.47;;;2.40;;
54271;SDS011;40184;53.362;5.216;2022-08-19T14:36:16;6.20;;;2.90;;
54271;SDS011;40184;53.362;5.216;2022-08-19T14:38:43;1.92;;;1.73;;
54271;SDS011;40184;53.362;5.216;2022-08-19T14:43:49;4.05;;;1.90;;
54271;SDS011;40184;53.362;5.216;2022-08-19T14:46:16;3.33;;;2.22;;
54271;SDS011;40184;53.362;5.216;2022-08-19T14:48:47;4.60;;;2.33;;
54271;SDS011;40184;53.362;5.216;2022-08-19T14:51:14;4.03;;;1.90;;
54271;SDS011;40184;53.362;5.216;2022-08-19T14:53:40;15.48;;;2.15;;
54271;SDS011;40184;53.362;5.216;2022-08-19T14:56:08;1.70;;;1.60;;